createdAt,value
2023-03-24T00:00:45.070Z,98027.22
2023-03-24T00:08:48.401Z,97999.38
2023-03-24T00:11:18.810Z,97987.97
2023-03-24T00:13:47.335Z,97987.06
2023-03-24T00:29:49.493Z,97951.00
2023-03-24T00:35:13.682Z,97944.84
2023-03-24T00:37:43.391Z,97937.88
2023-03-24T00:45:47.021Z,97931.81
2023-03-24T00:48:22.005Z,97922.69
2023-03-24T00:50:49.912Z,97922.94
2023-03-24T00:53:27.828Z,97931.81
2023-03-24T00:55:55.686Z,97923.28
2023-03-24T00:58:23.272Z,97923.03
2023-03-24T01:06:30.886Z,97922.31
2023-03-24T01:08:58.108Z,97915.47
2023-03-24T01:11:26.606Z,97911.97
2023-03-24T01:13:55.528Z,97903.69
2023-03-24T01:16:26.788Z,97903.78
2023-03-24T01:18:54.165Z,97908.91
2023-03-24T01:21:54.651Z,97897.19
2023-03-24T01:24:25.612Z,97892.91
2023-03-24T01:26:53.518Z,97899.16
2023-03-24T01:29:25.514Z,97903.56
2023-03-24T01:37:29.280Z,97906.63
2023-03-24T01:42:39.509Z,97897.53
2023-03-24T01:45:54.530Z,97902.50
2023-03-24T01:48:38.582Z,97901.34
2023-03-24T01:51:08.656Z,97900.88
2023-03-24T01:53:38.915Z,97889.31
2023-03-24T01:56:07.294Z,97895.19
2023-03-24T01:58:43.537Z,97896.25
2023-03-24T02:01:31.649Z,97887.63
2023-03-24T02:04:11.490Z,97885.84
2023-03-24T02:06:44.148Z,97889.91
2023-03-24T02:13:19.542Z,97870.56
2023-03-24T02:16:09.713Z,97873.09
2023-03-24T02:30:02.850Z,97859.13
2023-03-24T02:33:19.886Z,97858.25
2023-03-24T02:35:47.678Z,97853.84
2023-03-24T03:30:07.809Z,97788.44
2023-03-24T03:32:39.390Z,97802.03
2023-03-24T03:46:37.413Z,97799.91
2023-03-24T03:49:32.590Z,97788.16
2023-03-24T03:53:14.706Z,97806.09
2023-03-24T03:55:42.920Z,97782.25
2023-03-24T04:07:24.446Z,97801.81
2023-03-24T04:10:16.125Z,97796.47
2023-03-24T04:13:46.042Z,97790.13
2023-03-24T04:16:29.160Z,97797.34
2023-03-24T04:19:14.136Z,97790.06
2023-03-24T04:21:56.357Z,97783.59
2023-03-24T04:24:32.904Z,97787.56
2023-03-24T04:27:00.931Z,97782.59
2023-03-24T04:29:38.259Z,97795.00
2023-03-24T04:32:11.495Z,97781.44
2023-03-24T04:34:45.796Z,97773.47
2023-03-24T04:37:38.266Z,97779.97
2023-03-24T04:43:18.093Z,97768.78
2023-03-24T04:45:51.829Z,97769.72
2023-03-24T04:48:40.257Z,97758.38
2023-03-24T04:51:23.860Z,97771.75
2023-03-24T04:54:22.299Z,97754.13
2023-03-24T04:56:57.880Z,97764.03
2023-03-24T04:59:35.792Z,97774.34
2023-03-24T05:02:11.425Z,97772.41
2023-03-24T05:05:03.987Z,97754.22
2023-03-24T05:07:35.966Z,97763.94
2023-03-24T05:10:22.012Z,97765.19
2023-03-24T05:12:54.656Z,97776.38
2023-03-24T05:15:43.610Z,97776.50
2023-03-24T05:18:22.550Z,97770.81
2023-03-24T05:20:49.678Z,97769.19
2023-03-24T05:23:23.112Z,97783.38
2023-03-24T05:26:00.971Z,97781.50
2023-03-24T05:28:45.002Z,97756.69
2023-03-24T05:31:14.193Z,97784.19
2023-03-24T05:33:45.652Z,97787.69
2023-03-24T05:36:17.039Z,97782.09
2023-03-24T05:38:51.048Z,97781.84
2023-03-24T05:41:18.699Z,97780.56
2023-03-24T05:43:45.966Z,97776.50
2023-03-24T05:46:16.316Z,97774.16
2023-03-24T05:48:48.380Z,97770.34
2023-03-24T05:51:19.424Z,97778.47
2023-03-24T05:53:53.024Z,97775.22
2023-03-24T05:56:29.349Z,97769.38
2023-03-24T05:59:17.246Z,97779.38
2023-03-24T06:01:53.737Z,97777.00
2023-03-24T06:04:31.276Z,97780.50
2023-03-24T06:07:06.168Z,97778.56
2023-03-24T06:09:38.910Z,97779.69
2023-03-24T06:12:08.485Z,97775.41
2023-03-24T06:14:37.081Z,97772.00
2023-03-24T06:17:15.888Z,97766.78
2023-03-24T06:19:51.047Z,97771.34
2023-03-24T06:25:33.753Z,97771.03
2023-03-24T06:28:35.117Z,97764.28
2023-03-24T06:31:15.255Z,97764.59
2023-03-24T06:33:45.352Z,97763.00
2023-03-24T06:38:59.617Z,97759.34
2023-03-24T06:41:28.508Z,97753.75
2023-03-24T06:44:04.867Z,97763.16
2023-03-24T06:49:16.649Z,97763.63
2023-03-24T06:57:28.907Z,97766.97
2023-03-24T07:12:04.044Z,97762.09
2023-03-24T07:14:32.308Z,97760.25
2023-03-24T07:17:02.050Z,97753.50
2023-03-24T07:19:47.910Z,97776.63
2023-03-24T07:22:49.025Z,97766.16
2023-03-24T07:25:47.191Z,97765.69
2023-03-24T07:28:24.823Z,97766.75
2023-03-24T07:30:54.845Z,97771.59
2023-03-24T07:33:25.102Z,97775.81
2023-03-24T07:35:57.719Z,97763.72
2023-03-24T07:38:29.372Z,97775.56
2023-03-24T07:41:03.444Z,97783.38
2023-03-24T07:43:33.865Z,97787.66
2023-03-24T07:46:14.631Z,97781.63
2023-03-24T07:48:43.933Z,97781.41
2023-03-24T07:51:11.980Z,97778.16
2023-03-24T07:53:53.630Z,97782.22
2023-03-24T07:56:33.569Z,97782.22
2023-03-24T07:59:02.406Z,97802.09
2023-03-24T08:01:39.990Z,97795.38
2023-03-24T08:07:03.186Z,97803.41
2023-03-24T08:09:30.306Z,97791.75
2023-03-24T08:12:00.570Z,97802.81
2023-03-24T08:14:38.569Z,97799.66
2023-03-24T08:17:05.662Z,97799.44
2023-03-24T08:19:33.195Z,97789.53
2023-03-24T08:22:01.276Z,97803.47
2023-03-24T08:24:31.894Z,97792.53
2023-03-24T08:27:03.273Z,97794.88
2023-03-24T08:29:32.606Z,97801.03
2023-03-24T08:31:59.753Z,97800.91
2023-03-24T08:34:28.905Z,97798.44
2023-03-24T08:36:58.416Z,97797.25
2023-03-24T08:39:26.566Z,97798.84
2023-03-24T08:41:55.159Z,97797.28
2023-03-24T08:44:22.570Z,97814.38
2023-03-24T08:52:23.121Z,97813.38
2023-03-24T08:54:51.006Z,97808.19
2023-03-24T08:57:18.327Z,97809.81
2023-03-24T09:02:33.728Z,97822.56
2023-03-24T09:05:00.795Z,97811.69
2023-03-24T09:07:27.785Z,97830.59
2023-03-24T09:10:03.976Z,97828.00
2023-03-24T09:12:38.369Z,97832.16
2023-03-24T09:15:11.767Z,97826.88
2023-03-24T09:17:41.412Z,97828.41
2023-03-24T09:20:13.234Z,97830.50
2023-03-24T09:22:46.999Z,97838.31
2023-03-24T09:25:18.367Z,97835.94
2023-03-24T09:27:53.220Z,97833.53
2023-03-24T09:30:21.111Z,97838.97
2023-03-24T09:32:49.326Z,97832.66
2023-03-24T09:35:22.477Z,97843.19
2023-03-24T09:37:49.818Z,97834.84
2023-03-24T09:40:22.492Z,97837.25
2023-03-24T09:43:03.999Z,97843.53
2023-03-24T09:45:38.626Z,97844.00
2023-03-24T09:48:12.070Z,97847.97
2023-03-24T09:50:51.781Z,97854.88
2023-03-24T09:53:25.654Z,97858.34
2023-03-24T09:55:55.253Z,97853.41
2023-03-24T09:58:32.263Z,97849.06
2023-03-24T10:01:04.423Z,97857.28
2023-03-24T10:03:32.675Z,97845.19
2023-03-24T10:06:10.057Z,97843.00
2023-03-24T10:08:44.099Z,97871.50
2023-03-24T10:11:23.297Z,97862.25
2023-03-24T10:13:55.953Z,97863.94
2023-03-24T10:16:36.034Z,97867.69
2023-03-24T10:19:16.370Z,97869.28
2023-03-24T10:22:01.302Z,97865.00
2023-03-24T10:24:38.202Z,97872.22
2023-03-24T10:27:17.483Z,97865.81
2023-03-24T10:29:46.974Z,97870.84
2023-03-24T10:35:26.167Z,97863.06
2023-03-24T10:37:57.303Z,97882.09
2023-03-24T10:40:33.250Z,97871.97
2023-03-24T10:43:07.371Z,97885.84
2023-03-24T10:45:38.903Z,97884.81
2023-03-24T10:48:06.241Z,97882.28
2023-03-24T10:50:36.117Z,97887.31
2023-03-24T10:53:24.061Z,97897.22
2023-03-24T10:55:52.006Z,97902.00
2023-03-24T10:58:40.942Z,97900.84
2023-03-24T11:01:28.195Z,97900.56
2023-03-24T11:04:02.674Z,97907.78
2023-03-24T11:06:30.113Z,97893.00
2023-03-24T11:09:17.095Z,97903.63
2023-03-24T11:11:44.512Z,97892.91
2023-03-24T11:14:25.651Z,97906.72
2023-03-24T11:16:54.578Z,97901.97
2023-03-24T11:19:23.499Z,97906.44
2023-03-24T11:22:00.156Z,97919.44
2023-03-24T11:27:15.123Z,97917.03
2023-03-24T11:29:43.070Z,97917.41
2023-03-24T11:32:18.042Z,97914.88
2023-03-24T11:34:47.880Z,97916.00
2023-03-24T11:37:22.374Z,97906.63
2023-03-24T11:40:14.789Z,97916.94
2023-03-24T11:43:11.351Z,97918.00
2023-03-24T11:45:44.051Z,97918.19
2023-03-24T11:48:49.937Z,97917.06
2023-03-24T11:51:18.190Z,97918.47
2023-03-24T11:53:48.586Z,97923.13
2023-03-24T11:56:24.911Z,97924.63
2023-03-24T11:59:04.360Z,97924.97
2023-03-24T12:01:39.252Z,97917.59
2023-03-24T12:04:08.047Z,97935.28
2023-03-24T12:06:35.021Z,97933.03
2023-03-24T12:09:22.222Z,97940.63
2023-03-24T12:12:21.909Z,97941.16
2023-03-24T12:14:54.955Z,97949.63
2023-03-24T12:17:24.290Z,97955.66
2023-03-24T12:19:57.983Z,97968.13
2023-03-24T12:22:52.787Z,97975.59
2023-03-24T12:25:46.362Z,97964.84
2023-03-24T12:28:29.118Z,97963.69
2023-03-24T12:31:05.387Z,97963.94
2023-03-24T12:33:46.048Z,97965.31
2023-03-24T12:36:46.991Z,97958.72
2023-03-24T12:39:18.862Z,97955.84
2023-03-24T12:41:51.989Z,97954.72
2023-03-24T12:44:31.048Z,97974.47
2023-03-24T12:47:19.473Z,97962.81
2023-03-24T12:50:10.846Z,97970.06
2023-03-24T12:52:58.056Z,97962.88
2023-03-24T12:55:49.169Z,97959.56
2023-03-24T12:58:35.333Z,97959.94
2023-03-24T13:01:34.349Z,97982.47
2023-03-24T13:07:11.793Z,97977.19
2023-03-24T13:10:00.468Z,97973.34
2023-03-24T13:12:44.696Z,97973.66
2023-03-24T13:15:17.899Z,97970.09
2023-03-24T13:18:14.393Z,97962.00
2023-03-24T13:20:45.688Z,97964.09
2023-03-24T13:23:24.401Z,97976.00
2023-03-24T13:26:41.538Z,97976.59
2023-03-24T13:29:14.499Z,97971.94
2023-03-24T13:31:56.440Z,97968.69
2023-03-24T13:34:30.600Z,97968.19
2023-03-24T13:37:13.914Z,97968.63
2023-03-24T13:39:44.048Z,97968.41
2023-03-24T13:42:38.284Z,97967.84
2023-03-24T13:45:19.086Z,97974.03
2023-03-24T13:48:16.391Z,97977.63
2023-03-24T13:50:55.416Z,97986.59
2023-03-24T13:53:39.064Z,97977.81
2023-03-24T13:56:07.536Z,97973.22
2023-03-24T13:59:05.882Z,97985.91
2023-03-24T14:01:38.849Z,97982.13
2023-03-24T14:04:28.908Z,97982.25
2023-03-24T14:06:56.578Z,97987.06
2023-03-24T14:09:24.718Z,97986.66
2023-03-24T14:12:03.938Z,97995.69
2023-03-24T14:14:34.403Z,97998.97
2023-03-24T14:17:16.862Z,97998.06
2023-03-24T14:19:58.803Z,97999.72
2023-03-24T14:22:33.839Z,98007.22
2023-03-24T14:25:03.803Z,98011.84
2023-03-24T14:27:36.875Z,98008.19
2023-03-24T14:30:16.489Z,98025.03
2023-03-24T14:33:01.031Z,98023.81
2023-03-24T14:35:42.467Z,98015.63
2023-03-24T14:38:15.762Z,98022.56
2023-03-24T14:40:49.685Z,98024.09
2023-03-24T14:43:41.606Z,98022.09
2023-03-24T14:46:21.285Z,98031.75
2023-03-24T14:49:14.684Z,98022.50
2023-03-24T14:51:44.221Z,98018.97
2023-03-24T14:54:21.245Z,98026.69
2023-03-24T14:56:53.100Z,98029.25
2023-03-24T14:59:23.408Z,98034.38
2023-03-24T15:01:51.765Z,98039.69
2023-03-24T15:04:19.076Z,98042.91
2023-03-24T15:06:48.361Z,98049.31
2023-03-24T15:09:17.393Z,98040.09
2023-03-24T15:11:49.557Z,98053.31
2023-03-24T15:14:27.494Z,98058.88
2023-03-24T15:16:59.389Z,98058.53
2023-03-24T15:19:35.921Z,98049.84
2023-03-24T15:22:06.247Z,98056.53
2023-03-24T15:24:42.825Z,98053.22
2023-03-24T15:27:24.892Z,98067.94
2023-03-24T15:29:59.957Z,98070.00
2023-03-24T15:32:32.441Z,98066.91
2023-03-24T15:35:06.274Z,98069.53
2023-03-24T15:40:36.389Z,98081.81
2023-03-24T15:43:06.977Z,98080.25
2023-03-24T15:46:04.841Z,98085.69
2023-03-24T15:48:38.900Z,98075.31
2023-03-24T15:51:09.726Z,98092.84
2023-03-24T15:53:46.698Z,98099.22
2023-03-24T15:56:25.915Z,98094.81
2023-03-24T15:59:16.465Z,98100.25
2023-03-24T16:01:45.408Z,98104.72
2023-03-24T16:04:16.742Z,98103.25
2023-03-24T16:06:53.559Z,98116.66
2023-03-24T16:09:27.901Z,98116.94
2023-03-24T16:12:00.141Z,98110.91
2023-03-24T16:14:35.575Z,98128.38
2023-03-24T16:17:04.136Z,98130.47
2023-03-24T16:19:33.205Z,98120.38
2023-03-24T16:22:15.724Z,98133.78
2023-03-24T16:24:44.640Z,98137.97
2023-03-24T16:27:29.450Z,98140.94
2023-03-24T16:32:39.364Z,98127.25
2023-03-24T16:35:07.782Z,98139.09
2023-03-24T16:40:36.126Z,98137.19
2023-03-24T16:43:04.677Z,98152.41
2023-03-24T17:01:04.560Z,98176.47
2023-03-24T17:03:38.501Z,98150.88
2023-03-24T17:06:14.574Z,98163.34
2023-03-24T17:08:49.342Z,98163.72
2023-03-24T17:11:31.849Z,98180.34
2023-03-24T17:14:17.281Z,98184.41
2023-03-24T17:16:49.917Z,98178.25
2023-03-24T17:19:25.875Z,98169.75
2023-03-24T17:22:04.263Z,98175.34
2023-03-24T17:24:45.295Z,98180.09
2023-03-24T17:27:21.414Z,98172.16
2023-03-24T17:29:54.555Z,98183.78
2023-03-24T17:32:33.304Z,98172.13
2023-03-24T17:35:08.702Z,98183.94
2023-03-24T17:37:44.754Z,98168.44
2023-03-24T17:40:19.972Z,98165.72
2023-03-24T17:45:53.928Z,98172.47
2023-03-24T17:48:26.343Z,98208.34
2023-03-24T17:51:09.031Z,98181.91
2023-03-24T17:53:38.792Z,98199.22
2023-03-24T17:56:11.821Z,98213.06
2023-03-24T18:01:47.218Z,98208.69
2023-03-24T18:04:26.341Z,98198.38
2023-03-24T18:06:56.359Z,98207.09
2023-03-24T18:09:27.459Z,98182.72
2023-03-24T18:12:02.308Z,98222.09
2023-03-24T18:14:33.026Z,98203.84
2023-03-24T18:17:01.521Z,98202.78
2023-03-24T18:19:37.151Z,98211.22
2023-03-24T18:22:04.531Z,98215.84
2023-03-24T18:24:39.430Z,98204.44
2023-03-24T18:27:10.193Z,98215.94
2023-03-24T18:29:38.592Z,98205.56
2023-03-24T18:32:13.638Z,98214.59
2023-03-24T18:34:45.227Z,98206.59
2023-03-24T18:40:10.220Z,98199.56
2023-03-24T18:42:47.400Z,98234.50
2023-03-24T18:45:21.369Z,98203.41
2023-03-24T18:47:51.568Z,98198.28
2023-03-24T18:50:22.771Z,98205.31
2023-03-24T18:53:02.240Z,98201.50
2023-03-24T18:56:02.571Z,98208.66
2023-03-24T19:02:18.120Z,98210.34
2023-03-24T19:05:34.248Z,98187.09
2023-03-24T19:08:22.044Z,98205.81
2023-03-24T19:11:08.536Z,98223.16
2023-03-24T19:14:18.267Z,98198.31
2023-03-24T19:20:32.594Z,98193.19
2023-03-24T19:29:30.251Z,98233.31
2023-03-24T19:35:11.115Z,98219.34
2023-03-24T19:37:44.318Z,98214.50
2023-03-24T19:40:32.620Z,98218.97
2023-03-24T19:43:03.064Z,98192.41
2023-03-24T19:45:44.773Z,98187.28
2023-03-24T19:48:22.691Z,98196.06
2023-03-24T19:51:02.297Z,98185.94
2023-03-24T19:53:30.572Z,98214.84
2023-03-24T19:56:03.374Z,98196.72
2023-03-24T19:58:33.802Z,98190.44
2023-03-24T20:01:05.303Z,98183.00
2023-03-24T20:03:58.792Z,98199.19
2023-03-24T20:06:35.716Z,98195.88
2023-03-24T20:09:19.474Z,98204.50
2023-03-24T20:11:50.082Z,98199.22
2023-03-24T20:14:20.385Z,98217.41
2023-03-24T20:16:53.296Z,98213.94
2023-03-24T20:19:27.852Z,98188.03
2023-03-24T20:22:37.943Z,98182.09
2023-03-24T20:25:05.859Z,98183.09
2023-03-24T20:27:33.081Z,98182.72
2023-03-24T20:30:00.668Z,98191.38
2023-03-24T20:33:00.171Z,98205.09
2023-03-24T20:35:28.422Z,98187.81
2023-03-24T20:38:05.284Z,98181.44
2023-03-24T20:40:51.380Z,98191.66
2023-03-24T20:43:31.454Z,98191.81
2023-03-24T20:46:01.556Z,98199.44
2023-03-24T20:48:29.508Z,98162.03
2023-03-24T20:51:17.347Z,98177.59
2023-03-24T20:53:53.139Z,98162.13
2023-03-24T20:56:23.280Z,98182.50
2023-03-24T20:58:55.747Z,98179.25
2023-03-24T21:01:39.251Z,98190.09
2023-03-24T21:04:10.569Z,98166.84
2023-03-24T21:06:40.892Z,98152.09
2023-03-24T21:09:15.260Z,98158.19
2023-03-24T21:11:44.999Z,98172.13
2023-03-24T21:14:20.703Z,98151.25
2023-03-24T21:16:54.733Z,98141.00
2023-03-24T21:19:23.080Z,98152.06
2023-03-24T21:21:56.317Z,98173.25
2023-03-24T21:24:24.394Z,98133.19
2023-03-24T21:26:57.360Z,98162.59
2023-03-24T21:29:35.950Z,98152.75
2023-03-24T21:32:03.481Z,98155.59
2023-03-24T21:34:35.555Z,98170.53
2023-03-24T21:37:04.063Z,98145.66
2023-03-24T21:39:31.960Z,98150.94
2023-03-24T21:41:58.914Z,98135.63
2023-03-24T21:44:29.015Z,98148.50
2023-03-24T21:46:56.688Z,98144.25
2023-03-24T21:49:23.737Z,98128.25
2023-03-24T21:52:06.508Z,98143.75
2023-03-24T21:54:33.584Z,98132.78
2023-03-24T21:57:00.977Z,98144.63
2023-03-24T21:59:28.766Z,98147.88
2023-03-24T22:01:57.651Z,98160.09
2023-03-24T22:04:25.389Z,98155.44
2023-03-24T22:06:54.577Z,98157.53
2023-03-24T22:09:21.751Z,98169.50
2023-03-24T22:11:48.786Z,98167.47
2023-03-24T22:14:16.409Z,98149.53
2023-03-24T22:16:43.721Z,98151.75
2023-03-24T22:19:10.918Z,98147.88
2023-03-24T22:21:39.541Z,98147.06
2023-03-24T22:24:07.110Z,98157.25
2023-03-24T22:26:34.141Z,98139.50
2023-03-24T22:29:03.703Z,98116.78
2023-03-24T22:31:31.034Z,98133.13
2023-03-24T22:33:58.114Z,98144.63
2023-03-24T22:36:28.101Z,98111.28
2023-03-24T22:38:55.311Z,98130.28
2023-03-24T22:41:22.433Z,98123.19
2023-03-24T22:43:50.581Z,98131.13
2023-03-24T22:46:20.155Z,98112.72
2023-03-24T22:48:49.030Z,98109.91
2023-03-24T22:51:19.484Z,98112.84
2023-03-24T22:53:46.780Z,98128.38
2023-03-24T22:56:15.677Z,98103.06
2023-03-24T22:58:42.746Z,98116.75
2023-03-24T23:01:10.166Z,98132.03
2023-03-24T23:03:38.493Z,98122.63
2023-03-24T23:06:07.195Z,98127.56
2023-03-24T23:08:34.412Z,98117.38
2023-03-24T23:11:01.524Z,98124.94
2023-03-24T23:13:30.904Z,98112.09
2023-03-24T23:15:58.015Z,98095.81
2023-03-24T23:18:25.077Z,98101.94
2023-03-24T23:21:08.035Z,98111.59
2023-03-24T23:23:36.316Z,98093.84
2023-03-24T23:26:05.686Z,98088.38
2023-03-24T23:28:33.642Z,98092.66
2023-03-24T23:31:00.891Z,98115.97
2023-03-24T23:33:28.042Z,98104.72
2023-03-24T23:35:59.002Z,98115.16
2023-03-24T23:38:26.681Z,98093.72
2023-03-24T23:40:53.735Z,98102.13
2023-03-24T23:43:21.436Z,98110.31
2023-03-24T23:45:48.598Z,98103.00
2023-03-24T23:48:15.765Z,98104.66
2023-03-24T23:50:46.409Z,98104.59
2023-03-24T23:53:13.506Z,98102.13
2023-03-24T23:55:41.772Z,98089.13
2023-03-24T23:58:08.790Z,98081.53
